CheckWX is a tool to help pilots better visualize weather data.  It is not intended as a substitute for an official pre-flight weather briefing.

06:35:22 UTC

4A6 METAR
Scottsboro Municipal-Word Field Airport
Scottsboro, Alabama, USA
Current

20 mins ago

K4A6 190615Z AUTO 00000KT 10SM CLR 23/18 A3010 RMK AO2
Observed
Sep-19 @ 06:15 UTC
Visibility
10 SM
Flight Rules
VFR
Cloud Levels
  • Clear skies
Temperature
23°C / 73°F
Dewpoint
18°C / 64°F
Humidity
74%
Altimeter
30.1" Hg
Pressure
1019.32 hPa
Previous

40 mins ago

K4A6 190555Z AUTO VRB06G11KT 10SM 23/19 A3010 RMK AO2
Observed
Sep-19 @ 05:55 UTC
Wind
  • Variable at 6 KTS
  • Gusting to 11 KTS
Visibility
10 SM
Temperature
23°C / 73°F
Dewpoint
19°C / 66°F
Humidity
78%
Altimeter
30.1" Hg
Pressure
1019.32 hPa
Previous

60 mins ago

K4A6 190535Z AUTO 07004KT 10SM CLR 24/20 A3010 RMK AO2
Observed
Sep-19 @ 05:35 UTC
Wind
  • 070° at 4 KTS
Visibility
10 SM
Flight Rules
VFR
Cloud Levels
  • Clear skies
Temperature
24°C / 75°F
Dewpoint
20°C / 68°F
Humidity
78%
Altimeter
30.1" Hg
Pressure
1019.32 hPa